sensor_id;sensor_type;location;lat;lon;timestamp;P1;durP1;ratioP1;P2;durP2;ratioP2
51943;SDS011;37969;53.132;6.370;2023-07-31T00:00:30;11.32;;;8.93;;
51943;SDS011;37969;53.132;6.370;2023-07-31T00:02:56;10.77;;;9.18;;
51943;SDS011;37969;53.132;6.370;2023-07-31T00:05:23;8.20;;;7.13;;
51943;SDS011;37969;53.132;6.370;2023-07-31T00:07:49;7.30;;;6.60;;
51943;SDS011;37969;53.132;6.370;2023-07-31T00:10:15;7.50;;;6.80;;
51943;SDS011;37969;53.132;6.370;2023-07-31T00:12:42;9.05;;;6.75;;
51943;SDS011;37969;53.132;6.370;2023-07-31T00:15:08;7.47;;;6.80;;
51943;SDS011;37969;53.132;6.370;2023-07-31T00:17:35;6.65;;;5.97;;
51943;SDS011;37969;53.132;6.370;2023-07-31T00:20:01;6.93;;;6.32;;
51943;SDS011;37969;53.132;6.370;2023-07-31T00:22:28;7.32;;;6.32;;
51943;SDS011;37969;53.132;6.370;2023-07-31T00:24:55;7.97;;;7.03;;
51943;SDS011;37969;53.132;6.370;2023-07-31T00:27:21;7.13;;;6.25;;
51943;SDS011;37969;53.132;6.370;2023-07-31T00:29:47;7.45;;;6.60;;
51943;SDS011;37969;53.132;6.370;2023-07-31T00:32:14;9.57;;;7.15;;
51943;SDS011;37969;53.132;6.370;2023-07-31T00:34:40;9.38;;;7.60;;
51943;SDS011;37969;53.132;6.370;2023-07-31T00:37:06;14.27;;;9.70;;
51943;SDS011;37969;53.132;6.370;2023-07-31T00:39:33;8.93;;;8.07;;
51943;SDS011;37969;53.132;6.370;2023-07-31T00:42:00;10.93;;;8.85;;
51943;SDS011;37969;53.132;6.370;2023-07-31T00:44:26;10.95;;;9.43;;
51943;SDS011;37969;53.132;6.370;2023-07-31T00:46:52;11.05;;;9.75;;
51943;SDS011;37969;53.132;6.370;2023-07-31T00:49:20;12.23;;;8.18;;
51943;SDS011;37969;53.132;6.370;2023-07-31T00:51:46;11.68;;;8.85;;
51943;SDS011;37969;53.132;6.370;2023-07-31T00:54:12;8.82;;;7.68;;
51943;SDS011;37969;53.132;6.370;2023-07-31T00:56:38;9.73;;;7.45;;
51943;SDS011;37969;53.132;6.370;2023-07-31T00:59:06;9.15;;;8.25;;
51943;SDS011;37969;53.132;6.370;2023-07-31T01:01:32;8.10;;;7.30;;
51943;SDS011;37969;53.132;6.370;2023-07-31T01:03:58;12.02;;;7.90;;
51943;SDS011;37969;53.132;6.370;2023-07-31T01:09:02;11.02;;;7.25;;
51943;SDS011;37969;53.132;6.370;2023-07-31T01:11:31;8.40;;;7.05;;
51943;SDS011;37969;53.132;6.370;2023-07-31T01:13:59;9.05;;;7.88;;
51943;SDS011;37969;53.132;6.370;2023-07-31T01:16:25;9.50;;;7.88;;
51943;SDS011;37969;53.132;6.370;2023-07-31T01:18:52;9.52;;;7.68;;
51943;SDS011;37969;53.132;6.370;2023-07-31T01:23:51;9.57;;;7.80;;
51943;SDS011;37969;53.132;6.370;2023-07-31T01:26:21;7.03;;;6.43;;
51943;SDS011;37969;53.132;6.370;2023-07-31T01:29:01;7.80;;;6.43;;
51943;SDS011;37969;53.132;6.370;2023-07-31T01:31:29;7.47;;;6.65;;
51943;SDS011;37969;53.132;6.370;2023-07-31T01:33:56;9.32;;;7.32;;
51943;SDS011;37969;53.132;6.370;2023-07-31T01:36:23;6.28;;;5.57;;
51943;SDS011;37969;53.132;6.370;2023-07-31T01:38:50;6.18;;;5.57;;
51943;SDS011;37969;53.132;6.370;2023-07-31T01:41:16;6.05;;;5.10;;
51943;SDS011;37969;53.132;6.370;2023-07-31T01:43:43;5.75;;;5.25;;
51943;SDS011;37969;53.132;6.370;2023-07-31T01:46:09;5.65;;;5.10;;
51943;SDS011;37969;53.132;6.370;2023-07-31T01:48:35;5.35;;;4.90;;
51943;SDS011;37969;53.132;6.370;2023-07-31T01:51:02;5.28;;;4.78;;
51943;SDS011;37969;53.132;6.370;2023-07-31T01:53:30;5.65;;;5.15;;
51943;SDS011;37969;53.132;6.370;2023-07-31T01:55:56;5.32;;;4.85;;
51943;SDS011;37969;53.132;6.370;2023-07-31T01:58:22;5.28;;;4.75;;
51943;SDS011;37969;53.132;6.370;2023-07-31T02:00:48;6.38;;;5.00;;
51943;SDS011;37969;53.132;6.370;2023-07-31T02:03:14;4.50;;;4.10;;
51943;SDS011;37969;53.132;6.370;2023-07-31T02:05:43;4.43;;;4.07;;
51943;SDS011;37969;53.132;6.370;2023-07-31T02:08:10;4.00;;;3.70;;
51943;SDS011;37969;53.132;6.370;2023-07-31T02:10:36;5.22;;;4.30;;
51943;SDS011;37969;53.132;6.370;2023-07-31T02:13:02;7.93;;;3.72;;
51943;SDS011;37969;53.132;6.370;2023-07-31T02:15:30;4.00;;;3.80;;
51943;SDS011;37969;53.132;6.370;2023-07-31T02:17:56;3.67;;;3.47;;
51943;SDS011;37969;53.132;6.370;2023-07-31T02:20:22;4.43;;;4.03;;
51943;SDS011;37969;53.132;6.370;2023-07-31T02:22:48;3.90;;;3.42;;
51943;SDS011;37969;53.132;6.370;2023-07-31T02:25:14;4.05;;;3.65;;
51943;SDS011;37969;53.132;6.370;2023-07-31T02:27:41;4.57;;;3.83;;
51943;SDS011;37969;53.132;6.370;2023-07-31T02:30:07;3.80;;;3.50;;
51943;SDS011;37969;53.132;6.370;2023-07-31T02:32:34;4.65;;;4.07;;
51943;SDS011;37969;53.132;6.370;2023-07-31T02:35:00;3.95;;;3.40;;
51943;SDS011;37969;53.132;6.370;2023-07-31T02:37:26;4.15;;;3.85;;
51943;SDS011;37969;53.132;6.370;2023-07-31T02:39:54;3.90;;;3.10;;
51943;SDS011;37969;53.132;6.370;2023-07-31T02:42:20;4.10;;;3.70;;
51943;SDS011;37969;53.132;6.370;2023-07-31T02:44:46;3.58;;;3.28;;
51943;SDS011;37969;53.132;6.370;2023-07-31T02:47:12;3.97;;;3.67;;
51943;SDS011;37969;53.132;6.370;2023-07-31T02:49:38;4.55;;;4.13;;
51943;SDS011;37969;53.132;6.370;2023-07-31T02:52:04;3.13;;;2.58;;
51943;SDS011;37969;53.132;6.370;2023-07-31T02:54:31;2.90;;;2.70;;
51943;SDS011;37969;53.132;6.370;2023-07-31T02:56:57;5.80;;;2.90;;
51943;SDS011;37969;53.132;6.370;2023-07-31T02:59:23;5.40;;;2.90;;
51943;SDS011;37969;53.132;6.370;2023-07-31T03:01:50;2.60;;;2.40;;
51943;SDS011;37969;53.132;6.370;2023-07-31T03:04:16;4.13;;;2.30;;
51943;SDS011;37969;53.132;6.370;2023-07-31T03:06:42;2.50;;;2.30;;
51943;SDS011;37969;53.132;6.370;2023-07-31T03:09:08;5.32;;;3.97;;
51943;SDS011;37969;53.132;6.370;2023-07-31T03:11:34;6.05;;;2.67;;
51943;SDS011;37969;53.132;6.370;2023-07-31T03:14:01;5.93;;;3.00;;
51943;SDS011;37969;53.132;6.370;2023-07-31T03:16:27;9.43;;;3.60;;
51943;SDS011;37969;53.132;6.370;2023-07-31T03:18:53;2.72;;;2.53;;
51943;SDS011;37969;53.132;6.370;2023-07-31T03:21:20;6.13;;;3.10;;
51943;SDS011;37969;53.132;6.370;2023-07-31T03:23:46;4.78;;;3.00;;
51943;SDS011;37969;53.132;6.370;2023-07-31T03:26:12;4.78;;;3.25;;
51943;SDS011;37969;53.132;6.370;2023-07-31T03:28:38;3.53;;;3.15;;
51943;SDS011;37969;53.132;6.370;2023-07-31T03:31:05;7.10;;;4.18;;
51943;SDS011;37969;53.132;6.370;2023-07-31T03:33:33;6.10;;;3.00;;
51943;SDS011;37969;53.132;6.370;2023-07-31T03:35:59;3.50;;;2.95;;
51943;SDS011;37969;53.132;6.370;2023-07-31T03:38:25;3.67;;;3.25;;
51943;SDS011;37969;53.132;6.370;2023-07-31T03:40:52;5.32;;;3.15;;
51943;SDS011;37969;53.132;6.370;2023-07-31T03:43:18;6.50;;;3.78;;
51943;SDS011;37969;53.132;6.370;2023-07-31T03:45:44;4.97;;;3.63;;
51943;SDS011;37969;53.132;6.370;2023-07-31T03:48:10;3.42;;;3.10;;
51943;SDS011;37969;53.132;6.370;2023-07-31T03:50:36;4.70;;;3.28;;
51943;SDS011;37969;53.132;6.370;2023-07-31T03:53:02;3.63;;;3.22;;
51943;SDS011;37969;53.132;6.370;2023-07-31T03:55:29;6.82;;;3.28;;
51943;SDS011;37969;53.132;6.370;2023-07-31T03:57:55;4.07;;;2.90;;
51943;SDS011;37969;53.132;6.370;2023-07-31T04:00:21;3.45;;;2.95;;
51943;SDS011;37969;53.132;6.370;2023-07-31T04:02:47;5.85;;;2.92;;
51943;SDS011;37969;53.132;6.370;2023-07-31T04:05:14;3.22;;;2.72;;
51943;SDS011;37969;53.132;6.370;2023-07-31T04:07:40;2.38;;;2.20;;
51943;SDS011;37969;53.132;6.370;2023-07-31T04:10:06;3.20;;;2.47;;
51943;SDS011;37969;53.132;6.370;2023-07-31T04:12:32;3.28;;;2.45;;
51943;SDS011;37969;53.132;6.370;2023-07-31T04:14:58;2.85;;;2.00;;
51943;SDS011;37969;53.132;6.370;2023-07-31T04:17:24;3.53;;;1.83;;
51943;SDS011;37969;53.132;6.370;2023-07-31T04:19:51;4.60;;;2.13;;
51943;SDS011;37969;53.132;6.370;2023-07-31T04:22:18;5.35;;;2.90;;
51943;SDS011;37969;53.132;6.370;2023-07-31T04:24:44;4.68;;;2.90;;
51943;SDS011;37969;53.132;6.370;2023-07-31T04:27:10;4.38;;;3.70;;
51943;SDS011;37969;53.132;6.370;2023-07-31T04:29:37;2.40;;;2.20;;
51943;SDS011;37969;53.132;6.370;2023-07-31T04:32:05;3.15;;;2.80;;
51943;SDS011;37969;53.132;6.370;2023-07-31T04:34:31;2.40;;;2.30;;
51943;SDS011;37969;53.132;6.370;2023-07-31T04:36:57;2.70;;;2.50;;
51943;SDS011;37969;53.132;6.370;2023-07-31T04:39:23;2.90;;;2.70;;
51943;SDS011;37969;53.132;6.370;2023-07-31T04:41:49;3.10;;;2.70;;
51943;SDS011;37969;53.132;6.370;2023-07-31T04:44:15;3.95;;;2.65;;
51943;SDS011;37969;53.132;6.370;2023-07-31T04:46:42;4.38;;;2.70;;
51943;SDS011;37969;53.132;6.370;2023-07-31T04:49:08;8.32;;;2.90;;
51943;SDS011;37969;53.132;6.370;2023-07-31T04:51:34;4.15;;;2.20;;
51943;SDS011;37969;53.132;6.370;2023-07-31T04:54:00;2.40;;;2.20;;
51943;SDS011;37969;53.132;6.370;2023-07-31T04:56:26;2.90;;;2.30;;
51943;SDS011;37969;53.132;6.370;2023-07-31T04:58:52;2.45;;;2.25;;
51943;SDS011;37969;53.132;6.370;2023-07-31T05:01:19;4.32;;;2.65;;
51943;SDS011;37969;53.132;6.370;2023-07-31T05:03:45;5.97;;;2.53;;
51943;SDS011;37969;53.132;6.370;2023-07-31T05:06:11;6.40;;;2.55;;
51943;SDS011;37969;53.132;6.370;2023-07-31T05:08:38;2.33;;;2.10;;
51943;SDS011;37969;53.132;6.370;2023-07-31T05:11:04;6.25;;;2.30;;
51943;SDS011;37969;53.132;6.370;2023-07-31T05:13:31;2.85;;;2.58;;
51943;SDS011;37969;53.132;6.370;2023-07-31T05:15:57;6.75;;;3.35;;
51943;SDS011;37969;53.132;6.370;2023-07-31T05:18:23;3.83;;;2.75;;
51943;SDS011;37969;53.132;6.370;2023-07-31T05:20:49;5.50;;;2.90;;
51943;SDS011;37969;53.132;6.370;2023-07-31T05:23:15;4.03;;;2.90;;
51943;SDS011;37969;53.132;6.370;2023-07-31T05:25:41;3.78;;;2.53;;
51943;SDS011;37969;53.132;6.370;2023-07-31T05:28:07;4.05;;;2.58;;
51943;SDS011;37969;53.132;6.370;2023-07-31T05:30:34;5.15;;;2.80;;
51943;SDS011;37969;53.132;6.370;2023-07-31T05:33:00;4.78;;;2.78;;
51943;SDS011;37969;53.132;6.370;2023-07-31T05:35:26;8.90;;;3.20;;
51943;SDS011;37969;53.132;6.370;2023-07-31T05:37:52;5.40;;;3.05;;
51943;SDS011;37969;53.132;6.370;2023-07-31T05:40:18;5.97;;;3.25;;
51943;SDS011;37969;53.132;6.370;2023-07-31T05:42:44;7.43;;;3.20;;
51943;SDS011;37969;53.132;6.370;2023-07-31T05:45:11;7.07;;;3.70;;
51943;SDS011;37969;53.132;6.370;2023-07-31T05:47:38;5.50;;;3.63;;
51943;SDS011;37969;53.132;6.370;2023-07-31T05:50:05;7.75;;;4.20;;
51943;SDS011;37969;53.132;6.370;2023-07-31T05:52:31;7.78;;;4.25;;
51943;SDS011;37969;53.132;6.370;2023-07-31T05:54:57;9.73;;;4.28;;
51943;SDS011;37969;53.132;6.370;2023-07-31T05:57:23;8.65;;;4.65;;
51943;SDS011;37969;53.132;6.370;2023-07-31T05:59:49;11.00;;;4.72;;
51943;SDS011;37969;53.132;6.370;2023-07-31T06:04:42;23.23;;;6.50;;
51943;SDS011;37969;53.132;6.370;2023-07-31T06:07:08;26.90;;;8.00;;
51943;SDS011;37969;53.132;6.370;2023-07-31T06:09:34;25.08;;;8.43;;
51943;SDS011;37969;53.132;6.370;2023-07-31T06:12:00;27.27;;;9.60;;
51943;SDS011;37969;53.132;6.370;2023-07-31T06:14:26;30.90;;;9.57;;
51943;SDS011;37969;53.132;6.370;2023-07-31T06:16:52;35.38;;;9.55;;
51943;SDS011;37969;53.132;6.370;2023-07-31T06:19:18;41.58;;;10.52;;
51943;SDS011;37969;53.132;6.370;2023-07-31T06:21:45;32.05;;;9.73;;
51943;SDS011;37969;53.132;6.370;2023-07-31T06:24:11;35.53;;;10.02;;
51943;SDS011;37969;53.132;6.370;2023-07-31T06:26:38;36.28;;;10.23;;
51943;SDS011;37969;53.132;6.370;2023-07-31T06:29:04;31.23;;;10.00;;
51943;SDS011;37969;53.132;6.370;2023-07-31T06:31:31;27.27;;;9.45;;
51943;SDS011;37969;53.132;6.370;2023-07-31T06:33:57;32.05;;;9.65;;
51943;SDS011;37969;53.132;6.370;2023-07-31T06:36:23;32.92;;;9.80;;
51943;SDS011;37969;53.132;6.370;2023-07-31T06:38:49;29.27;;;9.20;;
51943;SDS011;37969;53.132;6.370;2023-07-31T06:41:15;27.20;;;8.68;;
51943;SDS011;37969;53.132;6.370;2023-07-31T06:43:41;35.33;;;8.60;;
51943;SDS011;37969;53.132;6.370;2023-07-31T06:46:08;29.60;;;8.77;;
51943;SDS011;37969;53.132;6.370;2023-07-31T06:48:35;29.58;;;8.95;;
51943;SDS011;37969;53.132;6.370;2023-07-31T06:51:02;29.13;;;8.75;;
51943;SDS011;37969;53.132;6.370;2023-07-31T06:53:28;26.35;;;8.68;;
51943;SDS011;37969;53.132;6.370;2023-07-31T06:55:55;25.83;;;8.05;;
51943;SDS011;37969;53.132;6.370;2023-07-31T06:58:21;25.73;;;7.70;;
51943;SDS011;37969;53.132;6.370;2023-07-31T07:00:47;28.98;;;8.65;;
51943;SDS011;37969;53.132;6.370;2023-07-31T07:03:17;26.25;;;8.77;;
51943;SDS011;37969;53.132;6.370;2023-07-31T07:05:43;24.02;;;8.77;;
51943;SDS011;37969;53.132;6.370;2023-07-31T07:08:09;31.40;;;8.75;;
51943;SDS011;37969;53.132;6.370;2023-07-31T07:10:36;27.08;;;9.02;;
51943;SDS011;37969;53.132;6.370;2023-07-31T07:13:02;24.30;;;8.48;;
51943;SDS011;37969;53.132;6.370;2023-07-31T07:15:29;22.63;;;8.93;;
51943;SDS011;37969;53.132;6.370;2023-07-31T07:17:55;25.10;;;8.70;;
51943;SDS011;37969;53.132;6.370;2023-07-31T07:20:21;25.33;;;8.05;;
51943;SDS011;37969;53.132;6.370;2023-07-31T07:22:47;27.42;;;9.20;;
51943;SDS011;37969;53.132;6.370;2023-07-31T07:25:13;25.17;;;9.00;;
51943;SDS011;37969;53.132;6.370;2023-07-31T07:27:40;19.70;;;8.10;;
51943;SDS011;37969;53.132;6.370;2023-07-31T07:30:06;16.45;;;7.10;;
51943;SDS011;37969;53.132;6.370;2023-07-31T07:32:33;17.50;;;6.68;;
51943;SDS011;37969;53.132;6.370;2023-07-31T07:34:59;19.15;;;8.05;;
51943;SDS011;37969;53.132;6.370;2023-07-31T07:37:25;18.25;;;8.65;;
51943;SDS011;37969;53.132;6.370;2023-07-31T07:39:51;13.05;;;6.30;;
51943;SDS011;37969;53.132;6.370;2023-07-31T07:42:18;13.60;;;5.93;;
51943;SDS011;37969;53.132;6.370;2023-07-31T07:44:44;7.93;;;4.15;;
51943;SDS011;37969;53.132;6.370;2023-07-31T07:47:10;6.82;;;3.47;;
51943;SDS011;37969;53.132;6.370;2023-07-31T07:49:36;5.72;;;3.20;;
51943;SDS011;37969;53.132;6.370;2023-07-31T07:52:03;4.03;;;2.40;;
51943;SDS011;37969;53.132;6.370;2023-07-31T07:54:29;3.90;;;2.50;;
51943;SDS011;37969;53.132;6.370;2023-07-31T07:56:55;5.07;;;2.50;;
51943;SDS011;37969;53.132;6.370;2023-07-31T07:59:24;3.70;;;2.38;;
51943;SDS011;37969;53.132;6.370;2023-07-31T08:01:50;5.35;;;2.60;;
51943;SDS011;37969;53.132;6.370;2023-07-31T08:04:17;12.77;;;2.70;;
51943;SDS011;37969;53.132;6.370;2023-07-31T08:06:43;5.78;;;2.80;;
51943;SDS011;37969;53.132;6.370;2023-07-31T08:09:09;3.47;;;2.08;;
51943;SDS011;37969;53.132;6.370;2023-07-31T08:11:36;4.00;;;2.13;;
51943;SDS011;37969;53.132;6.370;2023-07-31T08:14:02;1.77;;;1.67;;
51943;SDS011;37969;53.132;6.370;2023-07-31T08:16:28;3.17;;;1.70;;
51943;SDS011;37969;53.132;6.370;2023-07-31T08:18:54;1.75;;;1.65;;
51943;SDS011;37969;53.132;6.370;2023-07-31T08:21:21;2.05;;;1.85;;
51943;SDS011;37969;53.132;6.370;2023-07-31T08:23:47;2.70;;;2.03;;
51943;SDS011;37969;53.132;6.370;2023-07-31T08:26:15;2.70;;;2.17;;
51943;SDS011;37969;53.132;6.370;2023-07-31T08:28:41;1.70;;;1.50;;
51943;SDS011;37969;53.132;6.370;2023-07-31T08:31:07;2.10;;;1.90;;
51943;SDS011;37969;53.132;6.370;2023-07-31T08:33:33;2.75;;;1.80;;
51943;SDS011;37969;53.132;6.370;2023-07-31T08:36:00;2.08;;;1.30;;
51943;SDS011;37969;53.132;6.370;2023-07-31T08:38:26;1.60;;;1.50;;
51943;SDS011;37969;53.132;6.370;2023-07-31T08:40:54;1.73;;;1.63;;
51943;SDS011;37969;53.132;6.370;2023-07-31T08:43:20;2.03;;;1.40;;
51943;SDS011;37969;53.132;6.370;2023-07-31T08:45:48;2.10;;;1.40;;
51943;SDS011;37969;53.132;6.370;2023-07-31T08:48:15;2.08;;;1.80;;
51943;SDS011;37969;53.132;6.370;2023-07-31T08:50:41;1.60;;;1.50;;
51943;SDS011;37969;53.132;6.370;2023-07-31T08:53:08;4.70;;;1.65;;
51943;SDS011;37969;53.132;6.370;2023-07-31T08:55:35;1.88;;;1.55;;
51943;SDS011;37969;53.132;6.370;2023-07-31T08:58:02;1.60;;;1.50;;
51943;SDS011;37969;53.132;6.370;2023-07-31T09:00:29;1.50;;;1.40;;
51943;SDS011;37969;53.132;6.370;2023-07-31T09:02:57;1.98;;;1.77;;
51943;SDS011;37969;53.132;6.370;2023-07-31T09:05:28;3.38;;;2.58;;
51943;SDS011;37969;53.132;6.370;2023-07-31T09:07:54;2.15;;;1.90;;
51943;SDS011;37969;53.132;6.370;2023-07-31T09:10:22;1.83;;;1.50;;
51943;SDS011;37969;53.132;6.370;2023-07-31T09:12:48;1.40;;;1.10;;
51943;SDS011;37969;53.132;6.370;2023-07-31T09:15:15;3.88;;;1.42;;
51943;SDS011;37969;53.132;6.370;2023-07-31T09:17:41;5.28;;;1.35;;
51943;SDS011;37969;53.132;6.370;2023-07-31T09:20:16;1.23;;;1.13;;
51943;SDS011;37969;53.132;6.370;2023-07-31T09:22:42;1.05;;;1.05;;
51943;SDS011;37969;53.132;6.370;2023-07-31T09:25:19;1.73;;;1.08;;
51943;SDS011;37969;53.132;6.370;2023-07-31T09:27:46;2.28;;;1.20;;
51943;SDS011;37969;53.132;6.370;2023-07-31T09:30:13;0.95;;;0.95;;
51943;SDS011;37969;53.132;6.370;2023-07-31T09:32:39;0.98;;;0.98;;
51943;SDS011;37969;53.132;6.370;2023-07-31T09:35:13;2.03;;;1.15;;
51943;SDS011;37969;53.132;6.370;2023-07-31T09:37:40;1.05;;;0.95;;
51943;SDS011;37969;53.132;6.370;2023-07-31T09:40:12;2.08;;;1.00;;
51943;SDS011;37969;53.132;6.370;2023-07-31T09:42:50;1.40;;;1.02;;
51943;SDS011;37969;53.132;6.370;2023-07-31T09:45:16;2.92;;;0.60;;
51943;SDS011;37969;53.132;6.370;2023-07-31T09:47:47;0.73;;;0.73;;
51943;SDS011;37969;53.132;6.370;2023-07-31T09:50:14;0.60;;;0.60;;
51943;SDS011;37969;53.132;6.370;2023-07-31T09:52:41;0.90;;;0.45;;
51943;SDS011;37969;53.132;6.370;2023-07-31T09:55:08;0.40;;;0.40;;
51943;SDS011;37969;53.132;6.370;2023-07-31T09:57:36;0.50;;;0.50;;
51943;SDS011;37969;53.132;6.370;2023-07-31T10:00:08;0.63;;;0.45;;
51943;SDS011;37969;53.132;6.370;2023-07-31T10:02:35;0.40;;;0.40;;
51943;SDS011;37969;53.132;6.370;2023-07-31T10:05:02;1.48;;;0.50;;
51943;SDS011;37969;53.132;6.370;2023-07-31T10:07:29;0.65;;;0.50;;
51943;SDS011;37969;53.132;6.370;2023-07-31T10:09:57;5.45;;;0.50;;
51943;SDS011;37969;53.132;6.370;2023-07-31T10:12:24;1.75;;;0.20;;
51943;SDS011;37969;53.132;6.370;2023-07-31T10:14:53;0.20;;;0.20;;
51943;SDS011;37969;53.132;6.370;2023-07-31T10:17:21;0.10;;;0.10;;
51943;SDS011;37969;53.132;6.370;2023-07-31T10:19:48;0.98;;;0.30;;
51943;SDS011;37969;53.132;6.370;2023-07-31T10:22:14;0.38;;;0.38;;
51943;SDS011;37969;53.132;6.370;2023-07-31T10:24:42;0.88;;;0.40;;
51943;SDS011;37969;53.132;6.370;2023-07-31T10:27:09;0.38;;;0.30;;
51943;SDS011;37969;53.132;6.370;2023-07-31T10:29:36;0.30;;;0.30;;
51943;SDS011;37969;53.132;6.370;2023-07-31T10:32:04;0.90;;;0.40;;
51943;SDS011;37969;53.132;6.370;2023-07-31T10:34:34;0.70;;;0.30;;
51943;SDS011;37969;53.132;6.370;2023-07-31T10:39:56;0.40;;;0.35;;
51943;SDS011;37969;53.132;6.370;2023-07-31T10:42:30;0.35;;;0.30;;
51943;SDS011;37969;53.132;6.370;2023-07-31T10:44:57;0.30;;;0.30;;
51943;SDS011;37969;53.132;6.370;2023-07-31T10:47:23;0.50;;;0.30;;
51943;SDS011;37969;53.132;6.370;2023-07-31T10:49:50;0.88;;;0.35;;
51943;SDS011;37969;53.132;6.370;2023-07-31T10:52:22;0.82;;;0.32;;
51943;SDS011;37969;53.132;6.370;2023-07-31T10:54:49;1.27;;;0.38;;
51943;SDS011;37969;53.132;6.370;2023-07-31T10:57:21;0.60;;;0.40;;
51943;SDS011;37969;53.132;6.370;2023-07-31T10:59:49;0.50;;;0.50;;
51943;SDS011;37969;53.132;6.370;2023-07-31T11:02:23;1.42;;;0.60;;
51943;SDS011;37969;53.132;6.370;2023-07-31T11:05:07;2.05;;;0.70;;
51943;SDS011;37969;53.132;6.370;2023-07-31T11:07:46;1.23;;;0.70;;
51943;SDS011;37969;53.132;6.370;2023-07-31T11:10:15;3.40;;;1.08;;
51943;SDS011;37969;53.132;6.370;2023-07-31T11:12:41;2.47;;;0.60;;
51943;SDS011;37969;53.132;6.370;2023-07-31T11:15:08;0.60;;;0.60;;
51943;SDS011;37969;53.132;6.370;2023-07-31T11:17:38;1.20;;;0.60;;
51943;SDS011;37969;53.132;6.370;2023-07-31T11:20:05;0.85;;;0.50;;
51943;SDS011;37969;53.132;6.370;2023-07-31T11:22:33;1.15;;;0.77;;
51943;SDS011;37969;53.132;6.370;2023-07-31T11:25:00;0.80;;;0.60;;
51943;SDS011;37969;53.132;6.370;2023-07-31T11:27:27;0.93;;;0.77;;
51943;SDS011;37969;53.132;6.370;2023-07-31T11:29:59;1.17;;;1.10;;
51943;SDS011;37969;53.132;6.370;2023-07-31T11:32:26;0.82;;;0.60;;
51943;SDS011;37969;53.132;6.370;2023-07-31T11:34:53;1.38;;;0.90;;
51943;SDS011;37969;53.132;6.370;2023-07-31T11:37:19;1.08;;;0.88;;
51943;SDS011;37969;53.132;6.370;2023-07-31T11:39:58;1.15;;;1.05;;
51943;SDS011;37969;53.132;6.370;2023-07-31T11:42:25;2.65;;;1.00;;
51943;SDS011;37969;53.132;6.370;2023-07-31T11:44:51;1.83;;;0.88;;
51943;SDS011;37969;53.132;6.370;2023-07-31T11:47:17;3.35;;;1.00;;
51943;SDS011;37969;53.132;6.370;2023-07-31T11:49:43;4.30;;;1.13;;
51943;SDS011;37969;53.132;6.370;2023-07-31T11:52:10;2.83;;;1.60;;
51943;SDS011;37969;53.132;6.370;2023-07-31T11:54:37;3.47;;;1.42;;
51943;SDS011;37969;53.132;6.370;2023-07-31T11:57:04;5.07;;;1.45;;
51943;SDS011;37969;53.132;6.370;2023-07-31T11:59:31;3.65;;;1.48;;
51943;SDS011;37969;53.132;6.370;2023-07-31T12:01:57;3.50;;;2.15;;
51943;SDS011;37969;53.132;6.370;2023-07-31T12:04:23;3.47;;;1.40;;
51943;SDS011;37969;53.132;6.370;2023-07-31T12:06:52;3.90;;;1.73;;
51943;SDS011;37969;53.132;6.370;2023-07-31T12:09:19;6.93;;;2.33;;
51943;SDS011;37969;53.132;6.370;2023-07-31T12:11:46;5.22;;;2.35;;
51943;SDS011;37969;53.132;6.370;2023-07-31T12:14:25;5.38;;;2.35;;
51943;SDS011;37969;53.132;6.370;2023-07-31T12:16:54;5.57;;;3.10;;
51943;SDS011;37969;53.132;6.370;2023-07-31T12:19:21;7.03;;;2.80;;
51943;SDS011;37969;53.132;6.370;2023-07-31T12:21:47;5.07;;;2.45;;
51943;SDS011;37969;53.132;6.370;2023-07-31T12:24:13;3.97;;;2.10;;
51943;SDS011;37969;53.132;6.370;2023-07-31T12:26:39;4.60;;;2.15;;
51943;SDS011;37969;53.132;6.370;2023-07-31T12:29:06;9.27;;;2.63;;
51943;SDS011;37969;53.132;6.370;2023-07-31T12:31:33;10.98;;;3.38;;
51943;SDS011;37969;53.132;6.370;2023-07-31T12:34:00;7.82;;;2.97;;
51943;SDS011;37969;53.132;6.370;2023-07-31T12:36:27;9.40;;;3.67;;
51943;SDS011;37969;53.132;6.370;2023-07-31T12:41:23;12.55;;;3.88;;
51943;SDS011;37969;53.132;6.370;2023-07-31T12:43:50;16.13;;;4.22;;
51943;SDS011;37969;53.132;6.370;2023-07-31T12:46:16;10.93;;;3.88;;
51943;SDS011;37969;53.132;6.370;2023-07-31T12:48:42;14.45;;;4.53;;
51943;SDS011;37969;53.132;6.370;2023-07-31T12:51:08;12.02;;;4.65;;
51943;SDS011;37969;53.132;6.370;2023-07-31T12:53:35;16.50;;;4.38;;
51943;SDS011;37969;53.132;6.370;2023-07-31T12:56:01;12.45;;;4.05;;
51943;SDS011;37969;53.132;6.370;2023-07-31T12:58:27;10.73;;;2.90;;
51943;SDS011;37969;53.132;6.370;2023-07-31T13:00:53;16.80;;;3.60;;
51943;SDS011;37969;53.132;6.370;2023-07-31T13:03:20;14.13;;;3.92;;
51943;SDS011;37969;53.132;6.370;2023-07-31T13:05:46;12.02;;;3.65;;
51943;SDS011;37969;53.132;6.370;2023-07-31T13:08:12;16.05;;;4.55;;
51943;SDS011;37969;53.132;6.370;2023-07-31T13:10:40;13.68;;;4.32;;
51943;SDS011;37969;53.132;6.370;2023-07-31T13:13:07;13.07;;;3.97;;
51943;SDS011;37969;53.132;6.370;2023-07-31T13:15:33;14.50;;;4.03;;
51943;SDS011;37969;53.132;6.370;2023-07-31T13:17:59;10.20;;;3.40;;
51943;SDS011;37969;53.132;6.370;2023-07-31T13:20:25;11.85;;;3.83;;
51943;SDS011;37969;53.132;6.370;2023-07-31T13:22:51;13.73;;;3.85;;
51943;SDS011;37969;53.132;6.370;2023-07-31T13:25:17;11.30;;;3.60;;
51943;SDS011;37969;53.132;6.370;2023-07-31T13:27:44;10.93;;;4.00;;
51943;SDS011;37969;53.132;6.370;2023-07-31T13:30:10;7.78;;;3.50;;
51943;SDS011;37969;53.132;6.370;2023-07-31T13:32:36;11.63;;;3.38;;
51943;SDS011;37969;53.132;6.370;2023-07-31T13:35:05;12.60;;;4.10;;
51943;SDS011;37969;53.132;6.370;2023-07-31T13:37:31;11.57;;;3.83;;
51943;SDS011;37969;53.132;6.370;2023-07-31T13:39:58;15.50;;;3.63;;
51943;SDS011;37969;53.132;6.370;2023-07-31T13:42:24;10.68;;;3.67;;
51943;SDS011;37969;53.132;6.370;2023-07-31T13:44:50;11.30;;;3.50;;
51943;SDS011;37969;53.132;6.370;2023-07-31T13:47:16;14.35;;;3.78;;
51943;SDS011;37969;53.132;6.370;2023-07-31T13:49:42;9.95;;;3.30;;
51943;SDS011;37969;53.132;6.370;2023-07-31T13:52:09;10.05;;;3.33;;
51943;SDS011;37969;53.132;6.370;2023-07-31T13:54:36;11.93;;;4.50;;
51943;SDS011;37969;53.132;6.370;2023-07-31T13:57:02;7.75;;;3.50;;
51943;SDS011;37969;53.132;6.370;2023-07-31T13:59:28;10.23;;;3.38;;
51943;SDS011;37969;53.132;6.370;2023-07-31T14:01:54;7.18;;;3.75;;
51943;SDS011;37969;53.132;6.370;2023-07-31T14:04:21;10.50;;;4.32;;
51943;SDS011;37969;53.132;6.370;2023-07-31T14:06:47;10.95;;;4.00;;
51943;SDS011;37969;53.132;6.370;2023-07-31T14:09:15;9.90;;;4.20;;
51943;SDS011;37969;53.132;6.370;2023-07-31T14:11:42;9.20;;;4.00;;
51943;SDS011;37969;53.132;6.370;2023-07-31T14:14:09;9.73;;;4.15;;
51943;SDS011;37969;53.132;6.370;2023-07-31T14:16:36;11.35;;;3.92;;
51943;SDS011;37969;53.132;6.370;2023-07-31T14:19:02;10.75;;;3.67;;
51943;SDS011;37969;53.132;6.370;2023-07-31T14:21:28;13.68;;;4.15;;
51943;SDS011;37969;53.132;6.370;2023-07-31T14:23:54;15.05;;;4.03;;
51943;SDS011;37969;53.132;6.370;2023-07-31T14:26:20;12.95;;;3.33;;
51943;SDS011;37969;53.132;6.370;2023-07-31T14:28:47;14.25;;;4.03;;
51943;SDS011;37969;53.132;6.370;2023-07-31T14:31:13;19.30;;;5.15;;
51943;SDS011;37969;53.132;6.370;2023-07-31T14:33:39;13.52;;;4.45;;
51943;SDS011;37969;53.132;6.370;2023-07-31T14:36:05;11.02;;;4.30;;
51943;SDS011;37969;53.132;6.370;2023-07-31T14:38:31;13.90;;;4.47;;
51943;SDS011;37969;53.132;6.370;2023-07-31T14:40:58;10.40;;;4.13;;
51943;SDS011;37969;53.132;6.370;2023-07-31T14:43:24;11.63;;;4.47;;
51943;SDS011;37969;53.132;6.370;2023-07-31T14:45:50;11.38;;;4.40;;
51943;SDS011;37969;53.132;6.370;2023-07-31T14:48:18;13.75;;;4.35;;
51943;SDS011;37969;53.132;6.370;2023-07-31T14:50:44;12.90;;;4.13;;
51943;SDS011;37969;53.132;6.370;2023-07-31T14:53:10;11.13;;;4.38;;